createdAt,value
2023-01-26T00:01:31.483Z,62.63
2023-01-26T00:04:05.566Z,67.75
2023-01-26T00:06:32.740Z,81.22
2023-01-26T00:08:59.837Z,52.92
2023-01-26T00:11:34.431Z,80.13
2023-01-26T00:14:01.671Z,68.60
2023-01-26T00:16:42.424Z,62.30
2023-01-26T00:19:09.585Z,61.58
2023-01-26T00:21:36.687Z,55.70
2023-01-26T00:24:11.465Z,57.78
2023-01-26T00:26:38.639Z,59.03
2023-01-26T00:29:12.436Z,64.22
2023-01-26T00:31:39.598Z,53.55
2023-01-26T00:34:06.718Z,58.03
2023-01-26T00:36:40.421Z,74.95
2023-01-26T00:39:07.554Z,60.95
2023-01-26T00:41:59.553Z,49.15
2023-01-26T00:44:26.662Z,57.55
2023-01-26T00:46:53.882Z,46.35
2023-01-26T00:49:27.409Z,80.30
2023-01-26T00:51:54.496Z,85.00
2023-01-26T00:54:28.689Z,88.47
2023-01-26T00:56:56.111Z,90.32
2023-01-26T00:59:23.277Z,68.95
2023-01-26T01:01:57.459Z,75.40
2023-01-26T01:04:24.653Z,66.35
2023-01-26T01:06:58.454Z,68.57
2023-01-26T01:09:25.648Z,77.30
2023-01-26T01:11:52.768Z,59.03
2023-01-26T01:14:26.547Z,72.13
2023-01-26T01:17:00.487Z,55.50
2023-01-26T01:19:40.580Z,60.80
2023-01-26T01:22:07.917Z,67.13
2023-01-26T01:24:35.351Z,58.50
2023-01-26T01:27:09.406Z,65.75
2023-01-26T01:29:36.530Z,65.78
2023-01-26T01:32:10.436Z,66.75
2023-01-26T01:34:37.537Z,70.10
2023-01-26T01:37:04.614Z,75.45
2023-01-26T01:39:38.476Z,68.38
2023-01-26T01:42:05.719Z,57.95
2023-01-26T01:44:42.481Z,70.40
2023-01-26T01:47:15.876Z,68.75
2023-01-26T01:49:55.448Z,52.55
2023-01-26T01:52:32.484Z,63.08
2023-01-26T01:55:08.454Z,72.40
2023-01-26T01:57:51.439Z,65.30
2023-01-26T02:00:20.759Z,86.53
2023-01-26T02:03:18.435Z,234.77
2023-01-26T02:06:07.419Z,84.50
2023-01-26T02:08:36.864Z,140.98
2023-01-26T02:11:12.601Z,409.90
2023-01-26T02:13:40.178Z,150.73
2023-01-26T02:19:01.442Z,168.50
2023-01-26T02:21:29.064Z,107.35
2023-01-26T02:24:14.555Z,81.60
2023-01-26T02:26:41.712Z,91.05
2023-01-26T02:29:16.581Z,148.25
2023-01-26T02:31:50.442Z,257.63
2023-01-26T02:34:24.615Z,214.68
2023-01-26T02:37:01.107Z,286.33
2023-01-26T02:39:52.571Z,233.90
2023-01-26T02:42:38.244Z,153.27
2023-01-26T02:45:19.571Z,70.20
2023-01-26T02:47:46.663Z,95.78
2023-01-26T02:50:14.316Z,99.88
2023-01-26T02:52:48.442Z,96.93
2023-01-26T02:55:28.765Z,239.93
2023-01-26T02:58:06.644Z,127.50
2023-01-26T03:00:40.756Z,478.92
2023-01-26T03:03:19.483Z,494.70
2023-01-26T03:05:53.447Z,459.63
2023-01-26T03:08:27.475Z,355.50
2023-01-26T03:11:01.449Z,313.38
2023-01-26T03:13:35.491Z,403.13
2023-01-26T03:16:06.883Z,284.98
2023-01-26T03:19:05.445Z,270.80
2023-01-26T03:21:51.408Z,363.90
2023-01-26T03:24:43.452Z,214.77
2023-01-26T03:27:28.985Z,201.65
2023-01-26T03:30:03.450Z,480.85
2023-01-26T03:32:30.684Z,375.05
2023-01-26T03:35:04.497Z,464.27
2023-01-26T03:37:36.758Z,392.63
2023-01-26T03:40:32.627Z,323.77
2023-01-26T03:43:18.579Z,322.50
2023-01-26T03:46:11.481Z,320.40
2023-01-26T03:49:04.459Z,190.00
2023-01-26T03:51:50.421Z,206.93
2023-01-26T03:54:43.468Z,179.88
2023-01-26T03:57:10.571Z,79.07
2023-01-26T03:59:47.457Z,25.23
2023-01-26T04:02:33.120Z,54.05
2023-01-26T04:05:25.489Z,64.13
2023-01-26T04:08:11.492Z,24.17
2023-01-26T04:10:45.460Z,305.52
2023-01-26T04:13:31.094Z,278.42
2023-01-26T04:16:23.666Z,28.02
2023-01-26T04:19:16.175Z,95.15
2023-01-26T04:21:49.603Z,37.50
2023-01-26T04:24:17.500Z,395.58
2023-01-26T04:26:44.886Z,198.35
2023-01-26T04:29:19.465Z,128.57
2023-01-26T04:31:46.689Z,45.35
2023-01-26T04:34:21.613Z,73.22
2023-01-26T04:36:48.698Z,37.88
2023-01-26T04:39:15.779Z,64.22
2023-01-26T04:41:49.461Z,51.67
2023-01-26T04:44:16.933Z,51.28
2023-01-26T04:46:50.514Z,288.20
2023-01-26T04:49:17.600Z,265.30
2023-01-26T04:51:44.700Z,241.90
2023-01-26T04:54:18.482Z,342.27
2023-01-26T04:56:45.975Z,408.25
2023-01-26T05:01:46.738Z,89.13
2023-01-26T05:04:13.937Z,65.53
2023-01-26T05:06:48.482Z,60.55
2023-01-26T05:09:15.567Z,54.38
2023-01-26T05:11:49.748Z,47.78
2023-01-26T05:14:16.822Z,124.82
2023-01-26T05:17:03.616Z,106.47
2023-01-26T05:19:30.695Z,77.30
2023-01-26T05:21:57.806Z,74.85
2023-01-26T05:24:31.498Z,15.98
2023-01-26T05:27:18.550Z,19.98
2023-01-26T05:29:52.497Z,31.60
2023-01-26T05:32:20.005Z,19.65
2023-01-26T05:37:20.615Z,28.15
2023-01-26T05:39:47.767Z,21.05
2023-01-26T05:42:21.605Z,233.38
2023-01-26T05:44:48.680Z,28.75
2023-01-26T05:47:15.978Z,179.75
2023-01-26T05:49:49.506Z,21.52
2023-01-26T05:52:17.844Z,31.35
2023-01-26T05:54:51.612Z,164.10
2023-01-26T05:57:18.730Z,180.02
2023-01-26T05:59:45.870Z,207.40
2023-01-26T06:02:19.574Z,27.98
2023-01-26T06:04:46.716Z,53.33
2023-01-26T06:07:20.611Z,28.00
2023-01-26T06:09:47.754Z,51.17
2023-01-26T06:12:16.410Z,37.45
2023-01-26T06:14:50.504Z,13.05
2023-01-26T06:17:24.431Z,23.30
2023-01-26T06:19:58.533Z,209.57
2023-01-26T06:22:25.692Z,300.77
2023-01-26T06:24:52.785Z,174.20
2023-01-26T06:27:26.496Z,113.93
2023-01-26T06:29:53.580Z,114.47
2023-01-26T06:32:27.511Z,65.43
2023-01-26T06:34:54.807Z,82.20
2023-01-26T06:37:21.927Z,133.07
2023-01-26T06:39:55.500Z,23.45
2023-01-26T06:42:22.585Z,11.88
2023-01-26T06:44:56.534Z,23.25
2023-01-26T06:47:23.778Z,11.25
2023-01-26T06:49:51.104Z,19.67
2023-01-26T06:52:30.511Z,30.08
2023-01-26T06:54:59.309Z,21.48
2023-01-26T06:57:33.551Z,20.38
2023-01-26T07:00:00.749Z,33.33
2023-01-26T07:02:27.902Z,32.85
2023-01-26T07:05:01.496Z,38.35
2023-01-26T07:07:29.328Z,16.52
2023-01-26T07:10:02.544Z,18.40
2023-01-26T07:12:38.460Z,25.38
2023-01-26T07:15:12.594Z,20.30
2023-01-26T07:17:46.603Z,20.85
2023-01-26T07:20:26.524Z,21.13
2023-01-26T07:23:00.529Z,36.17
2023-01-26T07:25:34.643Z,18.92
2023-01-26T07:28:01.751Z,25.98
2023-01-26T07:30:28.868Z,23.73
2023-01-26T07:33:02.624Z,31.67
2023-01-26T07:35:29.900Z,133.10
2023-01-26T07:37:58.906Z,29.13
2023-01-26T07:40:32.519Z,25.65
2023-01-26T07:43:00.342Z,24.70
2023-01-26T07:45:34.552Z,25.17
2023-01-26T07:48:01.628Z,27.77
2023-01-26T07:50:28.771Z,62.55
2023-01-26T07:53:02.539Z,37.75
2023-01-26T07:55:29.691Z,48.65
2023-01-26T07:58:04.512Z,46.40
2023-01-26T08:00:31.586Z,38.78
2023-01-26T08:03:05.729Z,36.00
2023-01-26T08:05:33.241Z,42.20
2023-01-26T08:10:34.555Z,50.13
2023-01-26T08:13:02.272Z,60.13
2023-01-26T08:15:36.589Z,27.90
2023-01-26T08:18:10.593Z,27.58
2023-01-26T08:20:44.568Z,38.22
2023-01-26T08:23:11.663Z,15.40
2023-01-26T08:25:38.846Z,23.65
2023-01-26T08:28:12.547Z,20.50
2023-01-26T08:30:39.824Z,19.35
2023-01-26T08:33:13.684Z,17.20
2023-01-26T08:35:40.773Z,14.05
2023-01-26T08:38:07.907Z,10.50
2023-01-26T08:40:41.541Z,13.52
2023-01-26T08:43:08.628Z,6.53
2023-01-26T08:45:35.748Z,6.53
2023-01-26T08:48:09.580Z,9.88
2023-01-26T08:50:36.774Z,8.75
2023-01-26T08:53:10.577Z,3.88
2023-01-26T08:55:38.021Z,4.70
2023-01-26T08:58:05.112Z,5.72
2023-01-26T09:00:39.552Z,6.22
2023-01-26T09:03:07.126Z,7.40
2023-01-26T09:08:08.913Z,4.68
2023-01-26T09:10:37.986Z,4.70
2023-01-26T09:13:11.555Z,6.80
2023-01-26T09:15:39.129Z,3.55
2023-01-26T09:20:46.541Z,1.90
2023-01-26T09:23:20.544Z,2.55
2023-01-26T09:25:59.697Z,2.20
2023-01-26T09:28:27.235Z,4.20
2023-01-26T09:33:31.540Z,3.65
2023-01-26T09:36:03.629Z,1.80
2023-01-26T09:38:37.576Z,2.55
2023-01-26T09:41:23.493Z,2.47
2023-01-26T09:44:16.703Z,2.38
2023-01-26T09:46:59.448Z,1.65
2023-01-26T09:49:51.601Z,3.42
2023-01-26T09:52:27.622Z,1.17
2023-01-26T09:55:14.427Z,0.63
2023-01-26T09:57:47.656Z,1.17
2023-01-26T10:00:29.699Z,0.60
2023-01-26T10:03:12.025Z,0.60
2023-01-26T10:05:58.549Z,1.75
2023-01-26T10:08:33.535Z,1.75
2023-01-26T10:11:12.702Z,0.60
2023-01-26T10:13:39.902Z,1.38
2023-01-26T10:16:08.716Z,0.52
2023-01-26T10:18:57.566Z,0.50
2023-01-26T10:23:59.592Z,0.98
2023-01-26T10:26:30.718Z,0.57
2023-01-26T10:29:04.666Z,1.77
2023-01-26T10:31:33.499Z,0.82
2023-01-26T10:34:03.358Z,0.80
2023-01-26T10:36:38.563Z,1.10
2023-01-26T10:39:05.797Z,0.98
2023-01-26T10:41:39.567Z,2.03
2023-01-26T10:44:29.490Z,1.40
2023-01-26T10:47:13.717Z,2.20
2023-01-26T10:49:40.846Z,1.35
2023-01-26T10:52:08.283Z,2.60
2023-01-26T10:54:43.538Z,1.95
2023-01-26T10:57:22.747Z,0.70
2023-01-26T10:59:56.574Z,1.63
2023-01-26T11:02:27.264Z,0.88
2023-01-26T11:05:15.717Z,1.20
2023-01-26T11:07:47.712Z,2.35
2023-01-26T11:10:29.704Z,1.00
2023-01-26T11:13:19.540Z,1.90
2023-01-26T11:15:57.611Z,0.77
2023-01-26T11:18:54.681Z,1.92
2023-01-26T11:21:46.609Z,1.20
2023-01-26T11:24:17.899Z,1.67
2023-01-26T11:26:54.589Z,1.65
2023-01-26T11:29:30.555Z,5.90
2023-01-26T11:32:13.678Z,2.30
2023-01-26T11:34:46.295Z,3.78
2023-01-26T11:37:38.740Z,3.10
2023-01-26T11:40:14.985Z,5.10
2023-01-26T11:43:14.720Z,0.73
2023-01-26T11:45:58.788Z,3.40
2023-01-26T11:48:32.619Z,2.45
2023-01-26T11:51:07.826Z,4.35
2023-01-26T11:53:47.738Z,4.60
2023-01-26T11:56:33.399Z,3.40
2023-01-26T11:59:13.715Z,0.75
2023-01-26T12:01:47.003Z,4.57
2023-01-26T12:04:28.718Z,0.52
2023-01-26T12:07:06.609Z,2.28
2023-01-26T12:09:45.588Z,2.58
2023-01-26T12:12:26.573Z,2.67
2023-01-26T12:14:53.654Z,4.35
2023-01-26T12:17:30.593Z,1.92
2023-01-26T12:20:26.838Z,5.05
2023-01-26T12:23:11.581Z,0.93
2023-01-26T12:25:41.020Z,2.30
2023-01-26T12:28:23.844Z,1.80
2023-01-26T12:30:56.769Z,2.83
2023-01-26T12:33:30.629Z,5.43
2023-01-26T12:35:57.726Z,4.82
2023-01-26T12:38:50.696Z,1.63
2023-01-26T12:41:21.830Z,4.68
2023-01-26T12:44:10.597Z,1.98
2023-01-26T12:49:08.307Z,2.00
2023-01-26T12:51:45.580Z,2.28
2023-01-26T12:54:24.545Z,2.67
2023-01-26T12:57:00.597Z,6.00
2023-01-26T12:59:46.297Z,1.75
2023-01-26T13:02:29.782Z,2.15
2023-01-26T13:04:58.527Z,2.10
2023-01-26T13:07:40.590Z,1.85
2023-01-26T13:10:11.361Z,1.30
2023-01-26T13:12:56.605Z,4.78
2023-01-26T13:15:25.373Z,7.38
2023-01-26T13:18:03.604Z,3.00
2023-01-26T13:20:50.855Z,10.07
2023-01-26T13:23:43.596Z,2.50
2023-01-26T13:26:15.481Z,3.05
2023-01-26T13:28:49.590Z,4.53
2023-01-26T13:31:30.062Z,3.97
2023-01-26T13:34:05.659Z,3.60
2023-01-26T13:36:35.571Z,6.93
2023-01-26T13:39:27.733Z,5.78
2023-01-26T13:41:55.471Z,1.55
2023-01-26T13:44:24.387Z,4.93
2023-01-26T13:47:07.747Z,3.72
2023-01-26T13:49:38.505Z,3.05
2023-01-26T13:52:22.611Z,2.33
2023-01-26T13:54:50.767Z,4.82
2023-01-26T13:57:29.655Z,2.20
2023-01-26T14:00:00.773Z,2.95
2023-01-26T14:02:39.654Z,4.68
2023-01-26T14:05:07.195Z,1.58
2023-01-26T14:10:08.771Z,1.85
2023-01-26T14:12:43.758Z,5.47
2023-01-26T14:15:29.737Z,4.38
2023-01-26T14:18:05.200Z,2.55
2023-01-26T14:20:40.625Z,4.82
2023-01-26T14:23:18.563Z,5.63
2023-01-26T14:25:53.744Z,2.47
2023-01-26T14:28:21.980Z,4.63
2023-01-26T14:30:53.677Z,5.30
2023-01-26T14:33:27.598Z,3.42
2023-01-26T14:36:02.350Z,3.88
2023-01-26T14:38:39.618Z,4.47
2023-01-26T14:41:13.482Z,4.83
2023-01-26T14:43:46.616Z,6.22
2023-01-26T14:46:16.494Z,4.35
2023-01-26T14:48:55.633Z,3.15
2023-01-26T14:51:23.863Z,3.05
2023-01-26T14:54:20.600Z,3.97
2023-01-26T14:56:48.975Z,3.58
2023-01-26T14:59:27.605Z,5.22
2023-01-26T15:02:05.480Z,6.57
2023-01-26T15:04:44.627Z,3.25
2023-01-26T15:07:33.289Z,3.60
2023-01-26T15:10:07.614Z,6.45
2023-01-26T15:12:35.749Z,1.63
2023-01-26T15:15:09.610Z,4.25
2023-01-26T15:17:44.678Z,7.63
2023-01-26T15:20:24.609Z,5.53
2023-01-26T15:22:52.467Z,3.55
2023-01-26T15:25:32.624Z,4.63
2023-01-26T15:28:00.487Z,2.95
2023-01-26T15:30:44.644Z,4.75
2023-01-26T15:33:31.889Z,2.78
2023-01-26T15:36:05.797Z,1.98
2023-01-26T15:38:32.883Z,5.43
2023-01-26T15:40:59.985Z,2.55
2023-01-26T15:43:33.625Z,5.25
2023-01-26T15:46:01.285Z,3.35
2023-01-26T15:48:38.777Z,3.40
2023-01-26T15:51:06.570Z,10.70
2023-01-26T15:53:33.661Z,4.75
2023-01-26T15:56:07.637Z,5.10
2023-01-26T15:58:36.710Z,3.67
2023-01-26T16:01:10.801Z,7.30
2023-01-26T16:03:37.918Z,3.35
2023-01-26T16:06:05.103Z,3.65
2023-01-26T16:08:38.754Z,6.00
2023-01-26T16:11:06.838Z,5.22
2023-01-26T16:13:34.238Z,2.92
2023-01-26T16:16:07.685Z,4.57
2023-01-26T16:18:42.218Z,2.03
2023-01-26T16:21:24.690Z,6.70
2023-01-26T16:23:51.865Z,3.70
2023-01-26T16:26:19.607Z,6.95
2023-01-26T16:28:53.662Z,6.07
2023-01-26T16:31:22.335Z,4.38
2023-01-26T16:33:56.665Z,3.40
2023-01-26T16:36:24.012Z,6.32
2023-01-26T16:38:57.767Z,4.93
2023-01-26T16:41:26.533Z,5.10
2023-01-26T16:43:57.303Z,4.30
2023-01-26T16:46:31.629Z,7.70
2023-01-26T16:48:58.765Z,2.38
2023-01-26T16:51:33.638Z,3.45
2023-01-26T16:54:00.759Z,5.90
2023-01-26T16:56:28.807Z,3.55
2023-01-26T16:59:03.890Z,3.08
2023-01-26T17:01:34.327Z,3.13
2023-01-26T17:04:08.812Z,3.30
2023-01-26T17:06:35.932Z,3.30
2023-01-26T17:09:03.130Z,8.27
2023-01-26T17:11:36.650Z,4.05
2023-01-26T17:14:03.774Z,2.80
2023-01-26T17:16:39.758Z,3.80
2023-01-26T17:19:13.685Z,5.57
2023-01-26T17:21:53.776Z,4.53
2023-01-26T17:24:20.884Z,4.60
2023-01-26T17:26:48.036Z,2.42
2023-01-26T17:29:21.635Z,4.45
2023-01-26T17:31:48.751Z,4.43
2023-01-26T17:34:22.648Z,5.22
2023-01-26T17:36:49.778Z,3.40
2023-01-26T17:39:25.694Z,9.73
2023-01-26T17:41:53.930Z,4.63
2023-01-26T17:44:21.153Z,5.53
2023-01-26T17:46:54.665Z,2.88
2023-01-26T17:49:21.805Z,4.20
2023-01-26T17:51:55.699Z,5.47
2023-01-26T17:54:22.935Z,4.05
2023-01-26T17:56:57.654Z,4.53
2023-01-26T17:59:25.345Z,9.25
2023-01-26T18:01:59.869Z,7.13
2023-01-26T18:04:26.987Z,11.70
2023-01-26T18:06:54.125Z,13.15
2023-01-26T18:09:27.651Z,7.70
2023-01-26T18:11:54.799Z,11.75
2023-01-26T18:14:28.797Z,11.55
2023-01-26T18:16:55.883Z,13.13
2023-01-26T18:19:36.701Z,11.88
2023-01-26T18:22:10.566Z,8.65
2023-01-26T18:24:43.803Z,9.25
2023-01-26T18:27:11.026Z,12.40
2023-01-26T18:29:38.166Z,8.48
2023-01-26T18:32:12.669Z,8.15
2023-01-26T18:34:43.490Z,9.18
2023-01-26T18:37:18.794Z,7.35
2023-01-26T18:39:46.025Z,5.47
2023-01-26T18:42:13.193Z,8.80
2023-01-26T18:44:46.657Z,5.53
2023-01-26T18:47:13.800Z,6.03
2023-01-26T18:49:47.752Z,9.77
2023-01-26T18:52:14.853Z,9.07
2023-01-26T18:54:42.649Z,8.07
2023-01-26T18:57:16.676Z,9.73
2023-01-26T18:59:43.967Z,5.35
2023-01-26T19:02:21.779Z,7.70
2023-01-26T19:04:53.449Z,13.88
2023-01-26T19:07:27.717Z,6.85
2023-01-26T19:09:54.824Z,10.10
2023-01-26T19:12:21.906Z,12.60
2023-01-26T19:14:55.674Z,11.65
2023-01-26T19:17:22.909Z,10.70
2023-01-26T19:20:03.662Z,7.07
2023-01-26T19:22:31.337Z,7.45
2023-01-26T19:25:04.695Z,9.90
2023-01-26T19:27:32.180Z,10.15
2023-01-26T19:32:33.097Z,11.30
2023-01-26T19:35:00.188Z,9.77
2023-01-26T19:37:33.740Z,7.95
2023-01-26T19:40:00.903Z,8.52
2023-01-26T19:42:34.821Z,9.98
2023-01-26T19:45:01.925Z,14.73
2023-01-26T19:47:29.006Z,15.18
2023-01-26T19:50:02.680Z,18.65
2023-01-26T19:52:30.254Z,14.57
2023-01-26T19:55:03.701Z,23.60
2023-01-26T19:57:33.693Z,14.48
2023-01-26T20:00:00.798Z,13.95
2023-01-26T20:02:34.763Z,10.57
2023-01-26T20:05:01.945Z,14.55
2023-01-26T20:07:35.673Z,10.18
2023-01-26T20:10:02.783Z,10.25
2023-01-26T20:12:36.831Z,14.52
2023-01-26T20:15:04.514Z,11.20
2023-01-26T20:17:31.609Z,13.90
2023-01-26T20:20:05.702Z,14.48
2023-01-26T20:22:40.165Z,10.40
2023-01-26T20:25:14.022Z,9.50
2023-01-26T20:27:41.219Z,10.77
2023-01-26T20:30:08.657Z,11.73
2023-01-26T20:35:23.736Z,8.88
2023-01-26T20:38:04.823Z,8.95
2023-01-26T20:40:31.966Z,12.18
2023-01-26T20:42:59.148Z,12.88
2023-01-26T20:45:32.700Z,6.97
2023-01-26T20:47:59.816Z,11.88
2023-01-26T20:50:33.722Z,8.77
2023-01-26T20:53:00.807Z,11.18
2023-01-26T20:55:34.827Z,8.02
2023-01-26T20:58:02.017Z,9.05
2023-01-26T21:00:29.503Z,9.45
2023-01-26T21:03:02.689Z,12.07
2023-01-26T21:05:29.872Z,10.88
2023-01-26T21:08:03.845Z,17.48
2023-01-26T21:10:30.920Z,11.95
2023-01-26T21:12:57.999Z,16.98
2023-01-26T21:15:31.831Z,13.05
2023-01-26T21:17:58.917Z,12.52
2023-01-26T21:20:39.727Z,13.07
2023-01-26T21:23:06.860Z,14.52
2023-01-26T21:25:33.937Z,12.73
2023-01-26T21:28:07.700Z,10.88
2023-01-26T21:30:34.816Z,16.35
2023-01-26T21:33:08.762Z,17.35
2023-01-26T21:35:36.033Z,14.63
2023-01-26T21:38:03.164Z,13.52
2023-01-26T21:40:36.715Z,11.32
2023-01-26T21:43:10.691Z,11.82
2023-01-26T21:45:53.240Z,13.80
2023-01-26T21:48:41.700Z,16.83
2023-01-26T21:51:28.676Z,34.92
2023-01-26T21:54:03.917Z,9.95
2023-01-26T21:56:31.062Z,11.32
2023-01-26T21:59:02.485Z,18.75
2023-01-26T22:01:37.692Z,14.98
2023-01-26T22:04:13.814Z,9.73
2023-01-26T22:06:41.040Z,14.38
2023-01-26T22:09:09.181Z,14.90
2023-01-26T22:11:42.703Z,13.73
2023-01-26T22:14:13.893Z,11.82
2023-01-26T22:16:47.784Z,17.48
2023-01-26T22:19:21.764Z,15.00
2023-01-26T22:21:55.743Z,16.23
2023-01-26T22:24:22.938Z,11.20
2023-01-26T22:26:50.445Z,13.52
2023-01-26T22:29:23.689Z,14.93
2023-01-26T22:31:50.891Z,17.73
2023-01-26T22:34:24.748Z,15.82
2023-01-26T22:36:51.819Z,26.40
2023-01-26T22:39:19.166Z,13.05
2023-01-26T22:41:52.705Z,17.38
2023-01-26T22:44:21.865Z,10.20
2023-01-26T22:46:55.751Z,12.02
2023-01-26T22:49:22.827Z,14.73
2023-01-26T22:51:49.913Z,11.57
2023-01-26T22:54:23.714Z,16.60
2023-01-26T22:56:50.860Z,13.40
2023-01-26T22:59:24.967Z,15.85
2023-01-26T23:01:52.691Z,12.15
2023-01-26T23:04:20.159Z,13.98
2023-01-26T23:09:20.986Z,15.55
2023-01-26T23:11:54.726Z,18.65
2023-01-26T23:14:21.832Z,26.63
2023-01-26T23:16:55.718Z,14.68
2023-01-26T23:19:30.106Z,16.48
2023-01-26T23:22:09.867Z,20.50
2023-01-26T23:24:37.026Z,9.93
2023-01-26T23:27:04.176Z,13.90
2023-01-26T23:29:37.698Z,18.98
2023-01-26T23:32:04.899Z,15.63
2023-01-26T23:34:38.729Z,20.58
2023-01-26T23:37:05.807Z,17.17
2023-01-26T23:39:32.890Z,12.45
2023-01-26T23:42:06.724Z,15.32
2023-01-26T23:44:33.797Z,18.20
2023-01-26T23:47:07.833Z,11.05
2023-01-26T23:49:35.002Z,16.25
2023-01-26T23:52:02.166Z,22.33
2023-01-26T23:54:41.718Z,24.02
2023-01-26T23:57:08.817Z,15.60
2023-01-26T23:59:49.766Z,12.48
